Time;durP1;ratioP1;P1;durP2;ratioP2;P2;SDS_P1;SDS_P2;PMS_P1;PMS_P2;Temp;Humidity;BMP_temperature;BMP_pressure;BME280_temperature;BME280_humidity;BME280_pressure;Samples;Min_cycle;Max_cycle;Signal;HPM_P1;HPM_P2
2023/03/24 06:45:07;;;;;;;21.10;15.20;;;;;;;6.89;80.90;95540.36;104419;1298;558204;-71
2023/03/24 06:47:36;;;;;;;17.40;12.90;;;;;;;7.31;80.43;95534.41;105702;1287;133794;-69
2023/03/24 06:50:06;;;;;;;22.70;11.60;;;;;;;7.51;80.39;95526.91;106221;1287;25297;-69
2023/03/24 06:52:35;;;;;;;15.80;11.30;;;;;;;7.72;80.78;95528.14;105938;1287;24080;-68
2023/03/24 06:55:05;;;;;;;15.60;9.70;;;;;;;7.90;79.76;95519.40;105902;1287;22537;-69
2023/03/24 06:57:33;;;;;;;13.10;9.70;;;;;;;8.10;78.49;95519.20;105954;1287;22537;-68
2023/03/24 07:00:20;;;;;;;18.90;12.40;;;;;;;8.33;78.16;95521.94;105825;1287;22769;-71
2023/03/24 07:03:02;;;;;;;12.60;8.20;;;;;;;8.58;78.66;95520.28;105816;1287;24259;-67
2023/03/24 07:05:31;;;;;;;14.20;9.00;;;;;;;8.78;78.00;95521.80;105795;1287;22531;-71
2023/03/24 07:08:02;;;;;;;10.90;8.10;;;;;;;8.98;76.39;95522.75;105907;1286;22770;-70
2023/03/24 07:10:57;;;;;;;11.00;8.40;;;;;;;9.21;76.63;95519.63;105795;1287;22607;-71
2023/03/24 07:13:25;;;;;;;18.70;11.20;;;;;;;9.41;76.55;95515.48;105833;1287;24190;-68
2023/03/24 07:15:59;;;;;;;;;;;;;;;9.62;76.19;95514.43;108520;1286;24034;-68
2023/03/24 07:18:27;;;;;;;34.50;23.30;;;;;;;9.84;75.93;95513.53;105806;1280;25403;-73
2023/03/24 07:21:06;;;;;;;13.10;10.10;;;;;;;10.05;75.54;95514.23;105657;1280;24385;-74
2023/03/24 07:23:35;;;;;;;16.10;9.30;;;;;;;10.24;74.69;95515.65;105741;1281;26621;-68
2023/03/24 07:26:17;;;;;;;14.20;9.60;;;;;;;10.46;74.54;95511.92;105726;1282;22632;-73
2023/03/24 07:28:49;;;;;;;11.50;7.30;;;;;;;10.66;73.87;95509.59;106082;1278;22575;-71
2023/03/24 07:31:36;;;;;;;11.00;7.10;;;;;;;10.89;73.34;95506.83;106203;1258;22569;-70
2023/03/24 07:34:07;;;;;;;10.00;7.20;;;;;;;11.08;70.53;95504.31;106223;1280;25703;-73
2023/03/24 07:36:37;;;;;;;14.90;10.10;;;;;;;11.23;71.04;95504.14;106120;1280;22597;-73
2023/03/24 07:39:08;;;;;;;9.10;6.40;;;;;;;11.45;71.40;95502.95;107270;1280;25343;-70
2023/03/24 07:41:36;;;;;;;8.90;5.70;;;;;;;11.64;70.28;95497.20;106726;1280;22537;-77
2023/03/24 07:44:11;;;;;;;7.70;4.80;;;;;;;11.82;68.88;95490.42;105937;1275;22533;-69
2023/03/24 07:46:45;;;;;;;8.30;5.80;;;;;;;12.04;66.42;95487.23;106296;1273;22942;-69
2023/03/24 07:49:14;;;;;;;7.60;4.70;;;;;;;12.20;63.63;95482.08;108008;1274;22681;-74
2023/03/24 07:52:05;;;;;;;5.20;4.50;;;;;;;12.40;61.53;95483.30;105981;1278;25224;-73
2023/03/24 07:54:38;;;;;;;7.00;5.20;;;;;;;12.56;63.72;95478.95;105832;1275;22592;-77
2023/03/24 07:57:07;;;;;;;8.00;4.40;;;;;;;12.76;63.02;95476.98;106027;1275;22634;-74
2023/03/24 07:59:38;;;;;;;9.60;3.80;;;;;;;12.97;57.46;95466.66;106250;1277;24257;-77
2023/03/24 08:02:19;;;;;;;4.20;3.30;;;;;;;13.15;59.48;95457.98;106052;1278;22520;-75
2023/03/24 08:05:15;;;;;;;6.20;3.40;;;;;;;13.24;57.96;95457.88;106049;1280;24879;-80
2023/03/24 08:08:05;;;;;;;5.00;3.80;;;;;;;13.34;59.26;95455.30;107030;1280;24337;-75
2023/03/24 08:10:34;;;;;;;4.80;3.10;;;;;;;13.43;60.16;95449.38;106078;1280;24203;-80
2023/03/24 08:13:02;;;;;;;4.50;3.00;;;;;;;13.47;60.05;95443.59;105988;1280;24307;-71
2023/03/24 08:15:31;;;;;;;5.00;2.80;;;;;;;13.55;56.97;95441.58;106130;1280;22598;-77
2023/03/24 08:17:59;;;;;;;5.10;3.20;;;;;;;13.67;54.37;95440.27;106150;1280;26522;-79
2023/03/24 08:20:28;;;;;;;4.50;3.30;;;;;;;13.83;54.40;95443.27;106148;1280;24213;-76
2023/03/24 08:22:56;;;;;;;5.60;4.30;;;;;;;14.02;56.37;95438.95;106105;1275;22534;-75
2023/03/24 08:25:25;;;;;;;4.60;3.50;;;;;;;14.20;56.33;95436.70;106071;1278;24275;-76
2023/03/24 08:27:54;;;;;;;4.10;2.50;;;;;;;14.37;52.54;95435.94;105978;1280;25372;-81
2023/03/24 08:30:24;;;;;;;2.50;2.30;;;;;;;14.55;52.69;95432.65;106243;1280;22650;-75
2023/03/24 08:32:56;;;;;;;3.50;2.90;;;;;;;14.74;52.21;95428.23;106097;1278;23906;-71
2023/03/24 08:35:27;;;;;;;2.10;1.90;;;;;;;14.90;50.31;95425.13;106141;1275;22535;-81
2023/03/24 08:37:58;;;;;;;3.00;2.60;;;;;;;14.98;48.90;95426.10;106149;1275;24252;-78
2023/03/24 08:40:27;;;;;;;5.00;3.40;;;;;;;14.95;47.30;95425.14;106093;1281;22525;-77
2023/03/24 08:42:59;;;;;;;5.30;2.30;;;;;;;15.02;49.25;95423.80;106199;1281;24259;-81
2023/03/24 08:45:30;;;;;;;2.30;2.10;;;;;;;15.14;48.93;95421.04;106188;1281;22770;-79
2023/03/24 08:48:01;;;;;;;3.50;2.10;;;;;;;15.29;49.50;95418.46;106179;1281;25444;-75
2023/03/24 08:50:33;;;;;;;3.00;2.20;;;;;;;15.48;49.75;95413.48;105899;1276;23891;-70
2023/03/24 08:53:03;;;;;;;2.60;2.00;;;;;;;15.65;48.31;95410.10;106130;1281;25281;-76
2023/03/24 08:55:32;;;;;;;5.00;2.60;;;;;;;15.76;49.32;95404.90;106059;1281;22552;-79
2023/03/24 08:58:00;;;;;;;3.80;2.10;;;;;;;15.92;47.97;95407.05;105953;1281;22559;-72
2023/03/24 09:00:29;;;;;;;2.80;2.30;;;;;;;16.06;46.78;95402.73;107740;1281;23025;-75
2023/03/24 09:02:59;;;;;;;3.20;2.20;;;;;;;16.25;44.85;95401.73;106191;1281;23917;-79
2023/03/24 09:05:28;;;;;;;3.70;2.80;;;;;;;16.40;44.54;95397.70;106373;1278;22792;-79
2023/03/24 09:08:12;;;;;;;3.60;3.20;;;;;;;16.53;45.79;95399.09;106330;1280;22540;-79
2023/03/24 09:10:42;;;;;;;3.70;2.50;;;;;;;16.64;45.70;95394.14;105994;1281;22538;-77
2023/03/24 09:13:10;;;;;;;2.70;2.20;;;;;;;16.76;44.74;95399.64;106075;1281;22602;-77
2023/03/24 09:15:38;;;;;;;2.80;2.30;;;;;;;16.90;43.91;95396.88;106050;1281;25357;-76
2023/03/24 09:18:07;;;;;;;2.50;2.00;;;;;;;17.04;44.34;95389.09;106898;1281;25464;-77
2023/03/24 09:20:35;;;;;;;2.50;2.30;;;;;;;17.15;43.63;95384.34;106303;1280;24369;-78
2023/03/24 09:23:04;;;;;;;2.60;2.10;;;;;;;17.27;42.03;95386.59;106130;1281;22648;-77
2023/03/24 09:25:32;;;;;;;10.10;2.40;;;;;;;17.37;43.08;95382.23;106105;1281;24203;-76
2023/03/24 09:28:01;;;;;;;4.30;2.40;;;;;;;17.52;42.01;95381.98;106223;1281;24388;-77
2023/03/24 09:30:30;;;;;;;3.60;2.60;;;;;;;17.66;42.81;95379.38;106184;1281;25384;-77
2023/03/24 09:33:01;;;;;;;3.90;3.10;;;;;;;17.83;42.55;95381.95;105985;1281;22647;-71
2023/03/24 09:35:30;;;;;;;3.50;2.60;;;;;;;17.98;42.66;95379.73;106031;1281;25557;-80
2023/03/24 09:37:58;;;;;;;4.60;3.40;;;;;;;18.11;41.39;95377.80;106045;1281;24495;-74
2023/03/24 09:40:30;;;;;;;4.40;3.00;;;;;;;18.25;42.21;95372.66;106218;1272;22634;-80
2023/03/24 09:43:11;;;;;;;4.20;2.90;;;;;;;18.40;41.60;95367.23;106911;1281;22548;-77
2023/03/24 09:45:50;;;;;;;3.10;2.60;;;;;;;18.59;41.95;95363.37;106273;1281;24357;-80
2023/03/24 09:48:50;;;;;;;3.70;2.70;;;;;;;18.73;40.70;95361.39;106205;1281;22526;-79
2023/03/24 09:51:35;;;;;;;4.40;2.70;;;;;;;18.88;40.23;95361.30;106321;1281;22600;-77
2023/03/24 09:54:26;;;;;;;5.00;2.90;;;;;;;19.02;40.75;95358.19;106343;1281;25335;-84
2023/03/24 09:56:56;;;;;;;4.00;3.00;;;;;;;19.15;39.11;95351.79;106240;1278;22533;-71
2023/03/24 09:59:24;;;;;;;4.10;2.50;;;;;;;19.27;39.61;95349.17;106906;1281;22603;-79
2023/03/24 10:01:53;;;;;;;3.70;3.10;;;;;;;19.33;37.44;95348.27;106215;1281;22527;-69
2023/03/24 10:04:25;;;;;;;3.90;2.90;;;;;;;19.36;38.08;95344.00;106155;1281;24231;-73
2023/03/24 10:07:15;;;;;;;5.20;2.80;;;;;;;19.46;39.44;95345.52;106154;1278;25383;-69
2023/03/24 10:09:47;;;;;;;3.90;2.90;;;;;;;19.57;36.93;95342.21;106007;1278;25329;-72
2023/03/24 10:12:45;;;;;;;4.70;2.70;;;;;;;19.64;37.01;95337.22;106152;1281;22641;-71
2023/03/24 10:15:29;;;;;;;4.80;2.90;;;;;;;19.75;36.30;95330.69;105960;1281;25699;-71
2023/03/24 10:18:11;;;;;;;3.70;2.50;;;;;;;19.85;36.48;95330.85;107604;1281;24987;-71
2023/03/24 10:21:01;;;;;;;2.90;2.50;;;;;;;19.89;36.60;95329.36;106251;1281;25506;-71
2023/03/24 10:23:46;;;;;;;4.30;2.50;;;;;;;20.03;36.08;95321.91;106126;1281;24750;-71
2023/03/24 10:26:38;;;;;;;4.40;2.10;;;;;;;20.20;36.28;95323.89;106160;1281;22532;-71
2023/03/24 10:29:18;;;;;;;2.90;2.20;;;;;;;20.19;34.04;95318.58;108230;1281;24213;-72
2023/03/24 10:31:50;;;;;;;2.10;1.90;;;;;;;20.23;34.96;95316.21;106207;1281;25428;-69
2023/03/24 10:34:21;;;;;;;2.00;1.80;;;;;;;20.36;35.97;95314.92;106621;1281;25275;-72
